sensor_id;sensor_type;location;lat;lon;timestamp;temperature;humidity
18876;DHT22;9570;50.854;13.778;2023-02-28T00:00:51;-0.40;99.90
18876;DHT22;9570;50.854;13.778;2023-02-28T00:03:16;-0.40;99.90
18876;DHT22;9570;50.854;13.778;2023-02-28T00:05:42;-0.50;99.90
18876;DHT22;9570;50.854;13.778;2023-02-28T00:08:08;-0.40;99.90
18876;DHT22;9570;50.854;13.778;2023-02-28T00:10:34;-0.40;99.90
18876;DHT22;9570;50.854;13.778;2023-02-28T00:13:03;-0.50;99.90
18876;DHT22;9570;50.854;13.778;2023-02-28T00:15:30;-0.40;99.90
18876;DHT22;9570;50.854;13.778;2023-02-28T00:17:56;-0.50;99.90
18876;DHT22;9570;50.854;13.778;2023-02-28T00:20:21;-0.50;99.90
18876;DHT22;9570;50.854;13.778;2023-02-28T00:22:49;-0.60;99.90
18876;DHT22;9570;50.854;13.778;2023-02-28T00:25:18;-0.70;99.90
18876;DHT22;9570;50.854;13.778;2023-02-28T00:27:44;-0.60;99.90
18876;DHT22;9570;50.854;13.778;2023-02-28T00:30:14;-0.50;99.90
18876;DHT22;9570;50.854;13.778;2023-02-28T00:32:40;-0.50;99.90
18876;DHT22;9570;50.854;13.778;2023-02-28T00:35:07;-0.60;99.90
18876;DHT22;9570;50.854;13.778;2023-02-28T00:37:32;-0.50;99.90
18876;DHT22;9570;50.854;13.778;2023-02-28T00:39:58;-0.50;99.90
18876;DHT22;9570;50.854;13.778;2023-02-28T00:42:24;-0.50;99.90
18876;DHT22;9570;50.854;13.778;2023-02-28T00:44:49;-0.50;99.90
18876;DHT22;9570;50.854;13.778;2023-02-28T00:47:15;-0.50;99.90
18876;DHT22;9570;50.854;13.778;2023-02-28T00:49:41;-0.50;99.90
18876;DHT22;9570;50.854;13.778;2023-02-28T00:52:06;-0.50;99.90
18876;DHT22;9570;50.854;13.778;2023-02-28T00:54:32;-0.50;99.90
18876;DHT22;9570;50.854;13.778;2023-02-28T00:56:57;-0.60;99.90
18876;DHT22;9570;50.854;13.778;2023-02-28T00:59:23;-0.60;99.90
18876;DHT22;9570;50.854;13.778;2023-02-28T01:01:48;-0.70;99.90
18876;DHT22;9570;50.854;13.778;2023-02-28T01:04:14;-0.70;99.90
18876;DHT22;9570;50.854;13.778;2023-02-28T01:06:40;-0.90;99.90
18876;DHT22;9570;50.854;13.778;2023-02-28T01:09:07;-0.80;99.90
18876;DHT22;9570;50.854;13.778;2023-02-28T01:11:33;-0.80;99.90
18876;DHT22;9570;50.854;13.778;2023-02-28T01:13:58;-0.90;99.90
18876;DHT22;9570;50.854;13.778;2023-02-28T01:16:24;-0.90;99.90
18876;DHT22;9570;50.854;13.778;2023-02-28T01:18:50;-0.90;99.90
18876;DHT22;9570;50.854;13.778;2023-02-28T01:21:17;-1.00;99.90
18876;DHT22;9570;50.854;13.778;2023-02-28T01:23:43;-1.00;99.90
18876;DHT22;9570;50.854;13.778;2023-02-28T01:26:15;-1.10;99.90
18876;DHT22;9570;50.854;13.778;2023-02-28T01:28:41;-1.00;99.90
18876;DHT22;9570;50.854;13.778;2023-02-28T01:31:08;-1.00;99.90
18876;DHT22;9570;50.854;13.778;2023-02-28T01:33:33;-1.10;99.90
18876;DHT22;9570;50.854;13.778;2023-02-28T01:36:03;-1.10;99.90
18876;DHT22;9570;50.854;13.778;2023-02-28T01:38:30;-1.00;99.90
18876;DHT22;9570;50.854;13.778;2023-02-28T01:40:56;-1.00;99.90
18876;DHT22;9570;50.854;13.778;2023-02-28T01:43:30;-1.00;99.90
18876;DHT22;9570;50.854;13.778;2023-02-28T01:45:57;-1.10;99.90
18876;DHT22;9570;50.854;13.778;2023-02-28T01:48:26;-1.20;99.90
18876;DHT22;9570;50.854;13.778;2023-02-28T01:50:53;-1.10;99.90
18876;DHT22;9570;50.854;13.778;2023-02-28T01:53:25;-1.10;99.90
18876;DHT22;9570;50.854;13.778;2023-02-28T01:55:53;-1.10;99.90
18876;DHT22;9570;50.854;13.778;2023-02-28T01:58:19;-1.20;99.90
18876;DHT22;9570;50.854;13.778;2023-02-28T02:00:45;-1.10;99.90
18876;DHT22;9570;50.854;13.778;2023-02-28T02:03:14;-1.10;99.90
18876;DHT22;9570;50.854;13.778;2023-02-28T02:05:40;-1.20;99.90
18876;DHT22;9570;50.854;13.778;2023-02-28T02:08:19;-1.00;99.90
18876;DHT22;9570;50.854;13.778;2023-02-28T02:10:53;-1.00;99.90
18876;DHT22;9570;50.854;13.778;2023-02-28T02:13:42;-1.10;99.90
18876;DHT22;9570;50.854;13.778;2023-02-28T02:19:30;-1.10;99.90
18876;DHT22;9570;50.854;13.778;2023-02-28T02:22:06;-1.20;99.90
18876;DHT22;9570;50.854;13.778;2023-02-28T02:24:48;-1.10;99.90
18876;DHT22;9570;50.854;13.778;2023-02-28T02:30:28;-1.10;99.90
18876;DHT22;9570;50.854;13.778;2023-02-28T02:33:18;-1.20;99.90
18876;DHT22;9570;50.854;13.778;2023-02-28T02:46:33;-1.40;99.90
18876;DHT22;9570;50.854;13.778;2023-02-28T02:49:01;-1.40;99.90
18876;DHT22;9570;50.854;13.778;2023-02-28T02:51:30;-1.40;99.90
18876;DHT22;9570;50.854;13.778;2023-02-28T02:54:05;-1.50;99.90
18876;DHT22;9570;50.854;13.778;2023-02-28T02:56:33;-1.50;99.90
18876;DHT22;9570;50.854;13.778;2023-02-28T02:59:07;-1.50;99.90
18876;DHT22;9570;50.854;13.778;2023-02-28T03:01:35;-1.60;99.90
18876;DHT22;9570;50.854;13.778;2023-02-28T03:04:04;-1.60;99.90
18876;DHT22;9570;50.854;13.778;2023-02-28T03:06:31;-1.70;99.90
18876;DHT22;9570;50.854;13.778;2023-02-28T03:08:57;-1.70;99.90
18876;DHT22;9570;50.854;13.778;2023-02-28T03:11:22;-1.70;99.90
18876;DHT22;9570;50.854;13.778;2023-02-28T03:16:33;-1.80;99.90
18876;DHT22;9570;50.854;13.778;2023-02-28T03:19:33;-1.80;99.90
18876;DHT22;9570;50.854;13.778;2023-02-28T03:22:23;-1.90;99.90
18876;DHT22;9570;50.854;13.778;2023-02-28T03:28:03;-1.90;99.90
18876;DHT22;9570;50.854;13.778;2023-02-28T03:30:49;-1.90;99.90
18876;DHT22;9570;50.854;13.778;2023-02-28T03:36:07;-2.00;99.90
18876;DHT22;9570;50.854;13.778;2023-02-28T03:38:51;-2.00;99.90
18876;DHT22;9570;50.854;13.778;2023-02-28T03:41:25;-2.00;99.90
18876;DHT22;9570;50.854;13.778;2023-02-28T03:44:05;-2.00;99.90
18876;DHT22;9570;50.854;13.778;2023-02-28T03:46:35;-2.00;99.90
18876;DHT22;9570;50.854;13.778;2023-02-28T03:49:11;-2.00;99.90
18876;DHT22;9570;50.854;13.778;2023-02-28T03:51:38;-2.00;99.90
18876;DHT22;9570;50.854;13.778;2023-02-28T03:54:09;-2.00;99.90
18876;DHT22;9570;50.854;13.778;2023-02-28T03:57:05;-2.20;99.90
18876;DHT22;9570;50.854;13.778;2023-02-28T03:59:43;-2.10;99.90
18876;DHT22;9570;50.854;13.778;2023-02-28T04:02:09;-2.10;99.90
18876;DHT22;9570;50.854;13.778;2023-02-28T04:04:35;-2.10;99.90
18876;DHT22;9570;50.854;13.778;2023-02-28T04:07:04;-2.10;99.90
18876;DHT22;9570;50.854;13.778;2023-02-28T04:09:29;-2.00;99.90
18876;DHT22;9570;50.854;13.778;2023-02-28T04:11:55;-2.00;99.90
18876;DHT22;9570;50.854;13.778;2023-02-28T04:14:21;-2.00;99.90
18876;DHT22;9570;50.854;13.778;2023-02-28T04:16:47;-2.00;99.90
18876;DHT22;9570;50.854;13.778;2023-02-28T04:19:13;-2.00;99.90
18876;DHT22;9570;50.854;13.778;2023-02-28T04:21:42;-2.00;99.90
18876;DHT22;9570;50.854;13.778;2023-02-28T04:24:11;-2.00;99.90
18876;DHT22;9570;50.854;13.778;2023-02-28T04:26:40;-2.00;99.90
18876;DHT22;9570;50.854;13.778;2023-02-28T04:29:07;-2.00;99.90
18876;DHT22;9570;50.854;13.778;2023-02-28T04:31:33;-2.10;99.90
18876;DHT22;9570;50.854;13.778;2023-02-28T04:34:00;-2.10;99.90
18876;DHT22;9570;50.854;13.778;2023-02-28T04:36:26;-2.10;99.90
18876;DHT22;9570;50.854;13.778;2023-02-28T04:38:52;-2.10;99.90
18876;DHT22;9570;50.854;13.778;2023-02-28T04:41:18;-2.10;99.90
18876;DHT22;9570;50.854;13.778;2023-02-28T04:43:43;-2.20;99.90
18876;DHT22;9570;50.854;13.778;2023-02-28T04:46:09;-2.30;99.90
18876;DHT22;9570;50.854;13.778;2023-02-28T04:48:37;-2.30;99.90
18876;DHT22;9570;50.854;13.778;2023-02-28T04:51:06;-2.30;99.90
18876;DHT22;9570;50.854;13.778;2023-02-28T04:53:32;-2.40;99.90
18876;DHT22;9570;50.854;13.778;2023-02-28T04:55:58;-2.50;99.90
18876;DHT22;9570;50.854;13.778;2023-02-28T04:58:24;-2.50;99.90
18876;DHT22;9570;50.854;13.778;2023-02-28T05:00:51;-2.50;99.90
18876;DHT22;9570;50.854;13.778;2023-02-28T05:03:17;-2.60;99.90
18876;DHT22;9570;50.854;13.778;2023-02-28T05:05:42;-2.60;99.90
18876;DHT22;9570;50.854;13.778;2023-02-28T05:08:08;-2.60;99.90
18876;DHT22;9570;50.854;13.778;2023-02-28T05:10:35;-2.70;99.90
18876;DHT22;9570;50.854;13.778;2023-02-28T05:13:00;-2.80;99.90
18876;DHT22;9570;50.854;13.778;2023-02-28T05:15:26;-2.80;99.90
18876;DHT22;9570;50.854;13.778;2023-02-28T05:17:51;-2.90;99.90
18876;DHT22;9570;50.854;13.778;2023-02-28T05:20:17;-2.90;99.90
18876;DHT22;9570;50.854;13.778;2023-02-28T05:22:43;-3.00;99.90
18876;DHT22;9570;50.854;13.778;2023-02-28T05:25:13;-3.10;99.90
18876;DHT22;9570;50.854;13.778;2023-02-28T05:27:40;-3.20;99.90
18876;DHT22;9570;50.854;13.778;2023-02-28T05:30:06;-3.20;99.90
18876;DHT22;9570;50.854;13.778;2023-02-28T05:32:32;-3.30;99.90
18876;DHT22;9570;50.854;13.778;2023-02-28T05:34:57;-3.30;99.90
18876;DHT22;9570;50.854;13.778;2023-02-28T05:37:23;-3.40;99.90
18876;DHT22;9570;50.854;13.778;2023-02-28T05:39:48;-3.50;99.90
18876;DHT22;9570;50.854;13.778;2023-02-28T05:42:14;-3.50;99.90
18876;DHT22;9570;50.854;13.778;2023-02-28T05:44:39;-3.60;99.90
18876;DHT22;9570;50.854;13.778;2023-02-28T05:47:05;-3.60;99.90
18876;DHT22;9570;50.854;13.778;2023-02-28T05:49:30;-3.70;99.90
18876;DHT22;9570;50.854;13.778;2023-02-28T05:51:56;-3.70;99.90
18876;DHT22;9570;50.854;13.778;2023-02-28T05:54:21;-3.80;99.90
18876;DHT22;9570;50.854;13.778;2023-02-28T05:56:46;-3.80;99.90
18876;DHT22;9570;50.854;13.778;2023-02-28T05:59:13;-3.80;99.90
18876;DHT22;9570;50.854;13.778;2023-02-28T06:01:40;-3.90;99.90
18876;DHT22;9570;50.854;13.778;2023-02-28T06:04:08;-3.90;99.90
18876;DHT22;9570;50.854;13.778;2023-02-28T06:06:34;-3.90;99.90
18876;DHT22;9570;50.854;13.778;2023-02-28T06:09:00;-4.00;99.90
18876;DHT22;9570;50.854;13.778;2023-02-28T06:11:26;-4.00;99.90
18876;DHT22;9570;50.854;13.778;2023-02-28T06:13:59;-4.00;99.90
18876;DHT22;9570;50.854;13.778;2023-02-28T06:16:27;-4.00;99.90
18876;DHT22;9570;50.854;13.778;2023-02-28T06:18:53;-4.00;99.90
18876;DHT22;9570;50.854;13.778;2023-02-28T06:21:20;-4.00;99.90
18876;DHT22;9570;50.854;13.778;2023-02-28T06:23:46;-4.10;99.90
18876;DHT22;9570;50.854;13.778;2023-02-28T06:26:11;-4.10;99.90
18876;DHT22;9570;50.854;13.778;2023-02-28T06:28:37;-4.20;99.90
18876;DHT22;9570;50.854;13.778;2023-02-28T06:31:07;-4.10;99.90
18876;DHT22;9570;50.854;13.778;2023-02-28T06:33:33;-4.10;99.90
18876;DHT22;9570;50.854;13.778;2023-02-28T06:35:58;-4.10;99.90
18876;DHT22;9570;50.854;13.778;2023-02-28T06:38:24;-4.10;99.90
18876;DHT22;9570;50.854;13.778;2023-02-28T06:40:54;-4.10;99.90
18876;DHT22;9570;50.854;13.778;2023-02-28T06:43:19;-4.10;99.90
18876;DHT22;9570;50.854;13.778;2023-02-28T06:45:45;-4.10;99.90
18876;DHT22;9570;50.854;13.778;2023-02-28T06:48:10;-4.00;99.90
18876;DHT22;9570;50.854;13.778;2023-02-28T06:50:36;-3.90;99.90
18876;DHT22;9570;50.854;13.778;2023-02-28T06:53:02;-4.00;99.90
18876;DHT22;9570;50.854;13.778;2023-02-28T06:55:27;-4.00;99.90
18876;DHT22;9570;50.854;13.778;2023-02-28T06:57:53;-3.90;99.90
18876;DHT22;9570;50.854;13.778;2023-02-28T07:00:20;-3.90;99.90
18876;DHT22;9570;50.854;13.778;2023-02-28T07:02:45;-3.80;99.90
18876;DHT22;9570;50.854;13.778;2023-02-28T07:05:12;-3.80;99.90
18876;DHT22;9570;50.854;13.778;2023-02-28T07:07:38;-3.70;99.90
18876;DHT22;9570;50.854;13.778;2023-02-28T07:10:06;-3.70;99.90
18876;DHT22;9570;50.854;13.778;2023-02-28T07:12:32;-3.50;99.90
18876;DHT22;9570;50.854;13.778;2023-02-28T07:14:57;-3.50;99.90
18876;DHT22;9570;50.854;13.778;2023-02-28T07:17:23;-3.50;99.90
18876;DHT22;9570;50.854;13.778;2023-02-28T07:19:48;-3.50;99.90
18876;DHT22;9570;50.854;13.778;2023-02-28T07:22:14;-3.50;99.90
18876;DHT22;9570;50.854;13.778;2023-02-28T07:24:39;-3.40;99.90
18876;DHT22;9570;50.854;13.778;2023-02-28T07:27:04;-3.30;99.90
18876;DHT22;9570;50.854;13.778;2023-02-28T07:29:30;-3.20;99.90
18876;DHT22;9570;50.854;13.778;2023-02-28T07:31:56;-3.10;99.90
18876;DHT22;9570;50.854;13.778;2023-02-28T07:34:21;-2.70;99.90
18876;DHT22;9570;50.854;13.778;2023-02-28T07:36:47;-2.00;99.90
18876;DHT22;9570;50.854;13.778;2023-02-28T07:39:12;-1.60;99.90
18876;DHT22;9570;50.854;13.778;2023-02-28T07:41:38;-1.20;99.90
18876;DHT22;9570;50.854;13.778;2023-02-28T07:44:09;-0.80;99.90
18876;DHT22;9570;50.854;13.778;2023-02-28T07:46:35;-0.30;99.90
18876;DHT22;9570;50.854;13.778;2023-02-28T07:49:01;0.20;99.90
18876;DHT22;9570;50.854;13.778;2023-02-28T07:51:31;0.30;99.90
18876;DHT22;9570;50.854;13.778;2023-02-28T07:53:58;0.60;99.90
18876;DHT22;9570;50.854;13.778;2023-02-28T07:56:23;1.20;99.90
18876;DHT22;9570;50.854;13.778;2023-02-28T07:58:49;1.40;99.90
18876;DHT22;9570;50.854;13.778;2023-02-28T08:01:14;1.60;99.90
18876;DHT22;9570;50.854;13.778;2023-02-28T08:03:40;2.10;99.90
18876;DHT22;9570;50.854;13.778;2023-02-28T08:06:07;2.60;99.90
18876;DHT22;9570;50.854;13.778;2023-02-28T08:08:33;3.00;99.90
18876;DHT22;9570;50.854;13.778;2023-02-28T08:11:00;3.30;99.90
18876;DHT22;9570;50.854;13.778;2023-02-28T08:13:27;3.20;99.90
18876;DHT22;9570;50.854;13.778;2023-02-28T08:15:53;3.50;99.90
18876;DHT22;9570;50.854;13.778;2023-02-28T08:18:20;3.80;99.90
18876;DHT22;9570;50.854;13.778;2023-02-28T08:20:45;3.90;99.90
18876;DHT22;9570;50.854;13.778;2023-02-28T08:23:11;4.10;99.90
18876;DHT22;9570;50.854;13.778;2023-02-28T08:25:36;4.40;99.90
18876;DHT22;9570;50.854;13.778;2023-02-28T08:28:02;4.60;99.90
18876;DHT22;9570;50.854;13.778;2023-02-28T08:30:27;4.90;99.90
18876;DHT22;9570;50.854;13.778;2023-02-28T08:32:53;5.10;99.90
18876;DHT22;9570;50.854;13.778;2023-02-28T08:35:19;5.40;99.90
18876;DHT22;9570;50.854;13.778;2023-02-28T08:37:47;5.30;99.90
18876;DHT22;9570;50.854;13.778;2023-02-28T08:40:13;5.40;99.90
18876;DHT22;9570;50.854;13.778;2023-02-28T08:42:44;5.70;99.90
18876;DHT22;9570;50.854;13.778;2023-02-28T08:45:10;5.90;99.90
18876;DHT22;9570;50.854;13.778;2023-02-28T08:47:35;6.20;99.90
18876;DHT22;9570;50.854;13.778;2023-02-28T08:50:01;6.50;99.90
18876;DHT22;9570;50.854;13.778;2023-02-28T08:52:26;6.80;99.90
18876;DHT22;9570;50.854;13.778;2023-02-28T08:54:52;7.00;99.90
18876;DHT22;9570;50.854;13.778;2023-02-28T08:57:17;7.20;99.90
18876;DHT22;9570;50.854;13.778;2023-02-28T08:59:43;7.50;99.90
18876;DHT22;9570;50.854;13.778;2023-02-28T09:02:11;7.70;99.90
18876;DHT22;9570;50.854;13.778;2023-02-28T09:04:37;8.00;99.90
18876;DHT22;9570;50.854;13.778;2023-02-28T09:07:02;8.20;99.90
18876;DHT22;9570;50.854;13.778;2023-02-28T09:09:28;8.60;99.90
18876;DHT22;9570;50.854;13.778;2023-02-28T09:11:55;8.80;99.90
18876;DHT22;9570;50.854;13.778;2023-02-28T09:14:21;9.00;99.90
18876;DHT22;9570;50.854;13.778;2023-02-28T09:16:46;9.00;99.90
18876;DHT22;9570;50.854;13.778;2023-02-28T09:19:12;8.90;99.90
18876;DHT22;9570;50.854;13.778;2023-02-28T09:21:38;9.00;99.90
18876;DHT22;9570;50.854;13.778;2023-02-28T09:24:04;8.70;99.90
18876;DHT22;9570;50.854;13.778;2023-02-28T09:26:30;8.60;99.90
18876;DHT22;9570;50.854;13.778;2023-02-28T09:28:55;8.10;99.90
18876;DHT22;9570;50.854;13.778;2023-02-28T09:31:24;7.30;99.90
18876;DHT22;9570;50.854;13.778;2023-02-28T09:33:53;6.60;99.90
18876;DHT22;9570;50.854;13.778;2023-02-28T09:36:19;6.50;99.90
18876;DHT22;9570;50.854;13.778;2023-02-28T09:38:45;6.40;99.90
18876;DHT22;9570;50.854;13.778;2023-02-28T09:41:15;6.50;99.90
18876;DHT22;9570;50.854;13.778;2023-02-28T09:43:44;6.30;99.90
18876;DHT22;9570;50.854;13.778;2023-02-28T09:48:51;6.00;99.90
18876;DHT22;9570;50.854;13.778;2023-02-28T09:51:43;5.30;99.90
18876;DHT22;9570;50.854;13.778;2023-02-28T09:54:21;5.20;99.90
18876;DHT22;9570;50.854;13.778;2023-02-28T09:57:04;4.50;99.90
18876;DHT22;9570;50.854;13.778;2023-02-28T10:02:37;3.80;99.90
18876;DHT22;9570;50.854;13.778;2023-02-28T10:05:08;4.00;99.90
18876;DHT22;9570;50.854;13.778;2023-02-28T10:08:00;4.00;99.90
18876;DHT22;9570;50.854;13.778;2023-02-28T10:10:40;4.00;99.90
18876;DHT22;9570;50.854;13.778;2023-02-28T10:13:27;3.90;99.90
18876;DHT22;9570;50.854;13.778;2023-02-28T10:16:02;4.00;99.90
18876;DHT22;9570;50.854;13.778;2023-02-28T10:18:44;4.00;99.90
18876;DHT22;9570;50.854;13.778;2023-02-28T10:21:21;3.80;99.90
18876;DHT22;9570;50.854;13.778;2023-02-28T10:23:49;3.30;99.90
18876;DHT22;9570;50.854;13.778;2023-02-28T10:26:17;3.20;99.90
18876;DHT22;9570;50.854;13.778;2023-02-28T10:28:43;3.30;99.90
18876;DHT22;9570;50.854;13.778;2023-02-28T10:31:17;3.60;99.90
18876;DHT22;9570;50.854;13.778;2023-02-28T10:33:44;3.90;99.90
18876;DHT22;9570;50.854;13.778;2023-02-28T10:36:16;4.10;99.90
18876;DHT22;9570;50.854;13.778;2023-02-28T10:38:42;4.50;99.90
18876;DHT22;9570;50.854;13.778;2023-02-28T10:43:37;4.40;99.90
18876;DHT22;9570;50.854;13.778;2023-02-28T10:46:14;4.60;99.90
18876;DHT22;9570;50.854;13.778;2023-02-28T10:49:05;4.70;99.90
18876;DHT22;9570;50.854;13.778;2023-02-28T10:51:37;4.30;99.90
18876;DHT22;9570;50.854;13.778;2023-02-28T10:54:03;4.30;99.90
18876;DHT22;9570;50.854;13.778;2023-02-28T10:56:30;4.50;99.90
18876;DHT22;9570;50.854;13.778;2023-02-28T11:01:46;4.30;99.90
18876;DHT22;9570;50.854;13.778;2023-02-28T11:04:32;4.20;99.90
18876;DHT22;9570;50.854;13.778;2023-02-28T11:07:00;4.00;99.90
18876;DHT22;9570;50.854;13.778;2023-02-28T11:09:34;4.40;99.90
18876;DHT22;9570;50.854;13.778;2023-02-28T11:12:01;4.40;99.90
18876;DHT22;9570;50.854;13.778;2023-02-28T11:14:35;4.20;99.90
18876;DHT22;9570;50.854;13.778;2023-02-28T11:17:28;4.40;99.90
18876;DHT22;9570;50.854;13.778;2023-02-28T11:20:05;4.60;99.90
18876;DHT22;9570;50.854;13.778;2023-02-28T11:22:37;4.30;99.90
18876;DHT22;9570;50.854;13.778;2023-02-28T11:25:34;4.50;99.90
18876;DHT22;9570;50.854;13.778;2023-02-28T11:28:06;4.70;99.90
18876;DHT22;9570;50.854;13.778;2023-02-28T11:30:33;4.50;99.90
18876;DHT22;9570;50.854;13.778;2023-02-28T11:33:00;4.50;99.90
18876;DHT22;9570;50.854;13.778;2023-02-28T11:35:32;4.20;99.90
18876;DHT22;9570;50.854;13.778;2023-02-28T11:37:59;4.50;99.90
18876;DHT22;9570;50.854;13.778;2023-02-28T11:40:43;4.60;99.90
18876;DHT22;9570;50.854;13.778;2023-02-28T11:46:11;5.00;99.90
18876;DHT22;9570;50.854;13.778;2023-02-28T11:48:58;5.00;99.90
18876;DHT22;9570;50.854;13.778;2023-02-28T11:51:50;5.20;99.90
18876;DHT22;9570;50.854;13.778;2023-02-28T11:57:36;4.70;99.90
18876;DHT22;9570;50.854;13.778;2023-02-28T12:02:59;5.00;99.90
18876;DHT22;9570;50.854;13.778;2023-02-28T12:05:40;5.10;99.90
18876;DHT22;9570;50.854;13.778;2023-02-28T12:08:15;5.10;99.90
18876;DHT22;9570;50.854;13.778;2023-02-28T12:14:06;4.70;99.90
18876;DHT22;9570;50.854;13.778;2023-02-28T12:17:16;4.90;99.90
18876;DHT22;9570;50.854;13.778;2023-02-28T12:22:49;4.90;99.90
18876;DHT22;9570;50.854;13.778;2023-02-28T12:25:37;4.80;99.90
18876;DHT22;9570;50.854;13.778;2023-02-28T12:28:09;4.60;99.90
18876;DHT22;9570;50.854;13.778;2023-02-28T12:30:37;4.40;99.90
18876;DHT22;9570;50.854;13.778;2023-02-28T12:33:12;4.70;99.90
18876;DHT22;9570;50.854;13.778;2023-02-28T12:35:52;4.80;99.90
18876;DHT22;9570;50.854;13.778;2023-02-28T12:38:36;4.90;99.90
18876;DHT22;9570;50.854;13.778;2023-02-28T12:41:14;5.10;99.90
18876;DHT22;9570;50.854;13.778;2023-02-28T12:43:48;5.20;99.90
18876;DHT22;9570;50.854;13.778;2023-02-28T12:46:23;5.30;99.90
18876;DHT22;9570;50.854;13.778;2023-02-28T12:49:04;5.50;99.90
18876;DHT22;9570;50.854;13.778;2023-02-28T12:51:30;5.20;99.90
18876;DHT22;9570;50.854;13.778;2023-02-28T13:05:07;5.50;99.90
18876;DHT22;9570;50.854;13.778;2023-02-28T13:07:51;5.10;99.90
18876;DHT22;9570;50.854;13.778;2023-02-28T13:10:21;4.80;99.90
18876;DHT22;9570;50.854;13.778;2023-02-28T13:12:55;4.30;99.90
18876;DHT22;9570;50.854;13.778;2023-02-28T13:15:25;4.10;99.90
18876;DHT22;9570;50.854;13.778;2023-02-28T13:17:55;3.90;99.90
18876;DHT22;9570;50.854;13.778;2023-02-28T13:20:23;4.00;99.90
18876;DHT22;9570;50.854;13.778;2023-02-28T13:22:51;4.20;99.90
18876;DHT22;9570;50.854;13.778;2023-02-28T13:28:00;4.00;99.90
18876;DHT22;9570;50.854;13.778;2023-02-28T13:33:33;3.60;99.90
18876;DHT22;9570;50.854;13.778;2023-02-28T13:38:42;3.70;99.90
18876;DHT22;9570;50.854;13.778;2023-02-28T13:44:14;3.80;99.90
18876;DHT22;9570;50.854;13.778;2023-02-28T13:54:59;3.40;99.90
18876;DHT22;9570;50.854;13.778;2023-02-28T14:08:55;3.30;99.90
18876;DHT22;9570;50.854;13.778;2023-02-28T14:11:34;3.30;99.90
18876;DHT22;9570;50.854;13.778;2023-02-28T14:14:00;3.60;99.90
18876;DHT22;9570;50.854;13.778;2023-02-28T14:16:36;3.70;99.90
18876;DHT22;9570;50.854;13.778;2023-02-28T14:19:31;3.40;99.90
18876;DHT22;9570;50.854;13.778;2023-02-28T14:22:18;3.20;99.90
18876;DHT22;9570;50.854;13.778;2023-02-28T14:27:53;3.10;99.90
18876;DHT22;9570;50.854;13.778;2023-02-28T14:31:00;3.10;99.90
18876;DHT22;9570;50.854;13.778;2023-02-28T14:33:57;3.20;99.90
18876;DHT22;9570;50.854;13.778;2023-02-28T14:36:30;3.20;99.90
18876;DHT22;9570;50.854;13.778;2023-02-28T14:39:05;3.00;99.90
18876;DHT22;9570;50.854;13.778;2023-02-28T14:41:34;3.00;99.90
18876;DHT22;9570;50.854;13.778;2023-02-28T14:44:11;2.90;99.90
18876;DHT22;9570;50.854;13.778;2023-02-28T14:46:39;2.80;99.90
18876;DHT22;9570;50.854;13.778;2023-02-28T14:49:06;2.90;99.90
18876;DHT22;9570;50.854;13.778;2023-02-28T14:51:36;3.20;99.90
18876;DHT22;9570;50.854;13.778;2023-02-28T14:54:03;3.30;99.90
18876;DHT22;9570;50.854;13.778;2023-02-28T14:56:39;3.20;99.90
18876;DHT22;9570;50.854;13.778;2023-02-28T14:59:06;3.10;99.90
18876;DHT22;9570;50.854;13.778;2023-02-28T15:01:46;3.00;99.90
18876;DHT22;9570;50.854;13.778;2023-02-28T15:04:22;2.90;99.90
18876;DHT22;9570;50.854;13.778;2023-02-28T15:07:07;3.00;99.90
18876;DHT22;9570;50.854;13.778;2023-02-28T15:09:33;3.00;99.90
18876;DHT22;9570;50.854;13.778;2023-02-28T15:11:58;3.00;99.90
18876;DHT22;9570;50.854;13.778;2023-02-28T15:14:25;2.90;99.90
18876;DHT22;9570;50.854;13.778;2023-02-28T15:16:57;3.10;99.90
18876;DHT22;9570;50.854;13.778;2023-02-28T15:19:31;3.10;99.90
18876;DHT22;9570;50.854;13.778;2023-02-28T15:22:02;3.20;99.90
18876;DHT22;9570;50.854;13.778;2023-02-28T15:24:45;3.00;99.90
18876;DHT22;9570;50.854;13.778;2023-02-28T15:27:14;2.80;99.90
18876;DHT22;9570;50.854;13.778;2023-02-28T15:29:47;2.80;99.90
18876;DHT22;9570;50.854;13.778;2023-02-28T15:32:29;2.80;99.90
18876;DHT22;9570;50.854;13.778;2023-02-28T15:34:56;2.90;99.90
18876;DHT22;9570;50.854;13.778;2023-02-28T15:39:54;3.00;99.90
18876;DHT22;9570;50.854;13.778;2023-02-28T15:42:22;3.10;99.90
18876;DHT22;9570;50.854;13.778;2023-02-28T15:44:48;3.20;99.90
18876;DHT22;9570;50.854;13.778;2023-02-28T15:47:19;3.20;99.90
18876;DHT22;9570;50.854;13.778;2023-02-28T15:49:52;3.20;99.90
18876;DHT22;9570;50.854;13.778;2023-02-28T15:52:29;3.20;99.90
18876;DHT22;9570;50.854;13.778;2023-02-28T15:54:59;3.20;99.90
18876;DHT22;9570;50.854;13.778;2023-02-28T15:57:31;3.10;99.90
18876;DHT22;9570;50.854;13.778;2023-02-28T16:00:00;3.10;99.90
18876;DHT22;9570;50.854;13.778;2023-02-28T16:02:36;3.10;99.90
18876;DHT22;9570;50.854;13.778;2023-02-28T16:07:31;2.80;99.90
18876;DHT22;9570;50.854;13.778;2023-02-28T16:09:56;2.80;99.90
18876;DHT22;9570;50.854;13.778;2023-02-28T16:12:35;2.70;99.90
18876;DHT22;9570;50.854;13.778;2023-02-28T16:15:05;2.60;99.90
18876;DHT22;9570;50.854;13.778;2023-02-28T16:17:35;2.50;99.90
18876;DHT22;9570;50.854;13.778;2023-02-28T16:20:05;2.50;99.90
18876;DHT22;9570;50.854;13.778;2023-02-28T16:22:31;2.50;99.90
18876;DHT22;9570;50.854;13.778;2023-02-28T16:24:56;2.30;99.90
18876;DHT22;9570;50.854;13.778;2023-02-28T16:27:29;2.30;99.90
18876;DHT22;9570;50.854;13.778;2023-02-28T16:29:56;2.20;99.90
18876;DHT22;9570;50.854;13.778;2023-02-28T16:32:21;2.10;99.90
18876;DHT22;9570;50.854;13.778;2023-02-28T16:34:47;2.20;99.90
18876;DHT22;9570;50.854;13.778;2023-02-28T16:37:15;2.10;99.90
18876;DHT22;9570;50.854;13.778;2023-02-28T16:39:42;2.00;99.90
18876;DHT22;9570;50.854;13.778;2023-02-28T16:42:29;2.00;99.90
18876;DHT22;9570;50.854;13.778;2023-02-28T16:44:56;2.00;99.90
18876;DHT22;9570;50.854;13.778;2023-02-28T16:47:21;1.90;99.90
18876;DHT22;9570;50.854;13.778;2023-02-28T16:49:47;1.90;99.90
18876;DHT22;9570;50.854;13.778;2023-02-28T16:52:13;1.80;99.90
18876;DHT22;9570;50.854;13.778;2023-02-28T16:54:39;1.70;99.90
18876;DHT22;9570;50.854;13.778;2023-02-28T16:57:05;1.70;99.90
18876;DHT22;9570;50.854;13.778;2023-02-28T16:59:32;1.70;99.90
18876;DHT22;9570;50.854;13.778;2023-02-28T17:01:58;1.60;99.90
18876;DHT22;9570;50.854;13.778;2023-02-28T17:04:25;1.60;99.90
18876;DHT22;9570;50.854;13.778;2023-02-28T17:06:51;1.50;99.90
18876;DHT22;9570;50.854;13.778;2023-02-28T17:09:21;1.40;99.90
18876;DHT22;9570;50.854;13.778;2023-02-28T17:11:47;1.40;99.90
18876;DHT22;9570;50.854;13.778;2023-02-28T17:14:13;1.30;99.90
18876;DHT22;9570;50.854;13.778;2023-02-28T17:16:39;1.30;99.90
18876;DHT22;9570;50.854;13.778;2023-02-28T17:19:12;1.30;99.90
18876;DHT22;9570;50.854;13.778;2023-02-28T17:21:38;1.20;99.90
18876;DHT22;9570;50.854;13.778;2023-02-28T17:24:04;1.20;99.90
18876;DHT22;9570;50.854;13.778;2023-02-28T17:26:30;1.10;99.90
18876;DHT22;9570;50.854;13.778;2023-02-28T17:28:57;1.10;99.90
18876;DHT22;9570;50.854;13.778;2023-02-28T17:31:24;1.00;99.90
18876;DHT22;9570;50.854;13.778;2023-02-28T17:33:49;0.90;99.90
18876;DHT22;9570;50.854;13.778;2023-02-28T17:36:20;0.90;99.90
18876;DHT22;9570;50.854;13.778;2023-02-28T17:38:47;0.80;99.90